sensor_id;sensor_type;location;lat;lon;timestamp;P1;durP1;ratioP1;P2;durP2;ratioP2
4450;SDS011;2238;50.180;9.230;2023-04-06T00:02:50;8.03;;;7.30;;
4450;SDS011;2238;50.180;9.230;2023-04-06T00:05:52;7.93;;;7.23;;
4450;SDS011;2238;50.180;9.230;2023-04-06T00:08:53;8.07;;;7.10;;
4450;SDS011;2238;50.180;9.230;2023-04-06T00:11:53;9.30;;;7.40;;
4450;SDS011;2238;50.180;9.230;2023-04-06T00:14:54;9.20;;;6.47;;
4450;SDS011;2238;50.180;9.230;2023-04-06T00:17:55;8.23;;;7.10;;
4450;SDS011;2238;50.180;9.230;2023-04-06T00:20:56;9.30;;;7.00;;
4450;SDS011;2238;50.180;9.230;2023-04-06T00:23:56;8.07;;;7.33;;
4450;SDS011;2238;50.180;9.230;2023-04-06T00:26:57;7.70;;;7.00;;
4450;SDS011;2238;50.180;9.230;2023-04-06T00:29:57;8.90;;;8.13;;
4450;SDS011;2238;50.180;9.230;2023-04-06T00:32:58;8.00;;;7.17;;
4450;SDS011;2238;50.180;9.230;2023-04-06T00:35:59;8.50;;;7.67;;
4450;SDS011;2238;50.180;9.230;2023-04-06T00:38:59;8.87;;;7.90;;
4450;SDS011;2238;50.180;9.230;2023-04-06T00:42:00;6.93;;;6.23;;
4450;SDS011;2238;50.180;9.230;2023-04-06T00:45:10;8.73;;;7.43;;
4450;SDS011;2238;50.180;9.230;2023-04-06T00:48:11;8.17;;;7.47;;
4450;SDS011;2238;50.180;9.230;2023-04-06T00:51:11;8.77;;;7.97;;
4450;SDS011;2238;50.180;9.230;2023-04-06T00:54:12;7.67;;;6.97;;
4450;SDS011;2238;50.180;9.230;2023-04-06T00:57:13;11.37;;;7.87;;
4450;SDS011;2238;50.180;9.230;2023-04-06T01:00:14;8.77;;;7.53;;
4450;SDS011;2238;50.180;9.230;2023-04-06T01:03:15;8.67;;;7.77;;
4450;SDS011;2238;50.180;9.230;2023-04-06T01:06:16;8.20;;;7.40;;
4450;SDS011;2238;50.180;9.230;2023-04-06T01:09:16;8.33;;;7.63;;
4450;SDS011;2238;50.180;9.230;2023-04-06T01:12:17;11.00;;;7.80;;
4450;SDS011;2238;50.180;9.230;2023-04-06T01:15:18;7.77;;;7.10;;
4450;SDS011;2238;50.180;9.230;2023-04-06T01:18:25;8.57;;;7.63;;
4450;SDS011;2238;50.180;9.230;2023-04-06T01:21:27;10.10;;;7.40;;
4450;SDS011;2238;50.180;9.230;2023-04-06T01:24:27;7.90;;;7.10;;
4450;SDS011;2238;50.180;9.230;2023-04-06T01:27:28;7.63;;;6.93;;
4450;SDS011;2238;50.180;9.230;2023-04-06T01:30:29;7.80;;;7.10;;
4450;SDS011;2238;50.180;9.230;2023-04-06T01:33:30;8.47;;;7.70;;
4450;SDS011;2238;50.180;9.230;2023-04-06T01:36:31;9.47;;;8.03;;
4450;SDS011;2238;50.180;9.230;2023-04-06T01:39:31;7.83;;;7.10;;
4450;SDS011;2238;50.180;9.230;2023-04-06T01:42:32;8.60;;;7.80;;
4450;SDS011;2238;50.180;9.230;2023-04-06T01:45:32;8.50;;;7.77;;
4450;SDS011;2238;50.180;9.230;2023-04-06T01:48:33;8.60;;;7.70;;
4450;SDS011;2238;50.180;9.230;2023-04-06T01:51:34;8.57;;;7.77;;
4450;SDS011;2238;50.180;9.230;2023-04-06T01:54:34;9.07;;;8.30;;
4450;SDS011;2238;50.180;9.230;2023-04-06T01:57:35;9.33;;;8.43;;
4450;SDS011;2238;50.180;9.230;2023-04-06T02:00:35;8.57;;;6.97;;
4450;SDS011;2238;50.180;9.230;2023-04-06T02:03:36;10.57;;;9.40;;
4450;SDS011;2238;50.180;9.230;2023-04-06T02:06:37;11.30;;;9.30;;
4450;SDS011;2238;50.180;9.230;2023-04-06T02:09:37;9.80;;;8.87;;
4450;SDS011;2238;50.180;9.230;2023-04-06T02:12:38;8.53;;;7.63;;
4450;SDS011;2238;50.180;9.230;2023-04-06T02:15:38;8.77;;;7.77;;
4450;SDS011;2238;50.180;9.230;2023-04-06T02:18:39;9.43;;;8.53;;
4450;SDS011;2238;50.180;9.230;2023-04-06T02:21:40;8.50;;;7.70;;
4450;SDS011;2238;50.180;9.230;2023-04-06T02:24:40;9.03;;;8.17;;
4450;SDS011;2238;50.180;9.230;2023-04-06T02:27:41;8.23;;;7.40;;
4450;SDS011;2238;50.180;9.230;2023-04-06T02:30:41;8.33;;;7.40;;
4450;SDS011;2238;50.180;9.230;2023-04-06T02:33:42;12.37;;;7.70;;
4450;SDS011;2238;50.180;9.230;2023-04-06T02:36:46;8.10;;;7.40;;
4450;SDS011;2238;50.180;9.230;2023-04-06T02:39:47;9.97;;;8.23;;
4450;SDS011;2238;50.180;9.230;2023-04-06T02:42:48;9.07;;;8.23;;
4450;SDS011;2238;50.180;9.230;2023-04-06T02:45:48;14.23;;;8.50;;
4450;SDS011;2238;50.180;9.230;2023-04-06T02:48:49;10.07;;;7.90;;
4450;SDS011;2238;50.180;9.230;2023-04-06T02:51:50;9.83;;;8.53;;
4450;SDS011;2238;50.180;9.230;2023-04-06T02:54:50;9.17;;;8.33;;
4450;SDS011;2238;50.180;9.230;2023-04-06T02:57:51;8.77;;;7.87;;
4450;SDS011;2238;50.180;9.230;2023-04-06T03:00:51;9.77;;;8.23;;
4450;SDS011;2238;50.180;9.230;2023-04-06T03:03:52;10.57;;;8.20;;
4450;SDS011;2238;50.180;9.230;2023-04-06T03:06:53;8.67;;;7.87;;
4450;SDS011;2238;50.180;9.230;2023-04-06T03:09:55;8.97;;;8.10;;
4450;SDS011;2238;50.180;9.230;2023-04-06T03:12:55;9.80;;;8.80;;
4450;SDS011;2238;50.180;9.230;2023-04-06T03:15:56;11.40;;;8.87;;
4450;SDS011;2238;50.180;9.230;2023-04-06T03:18:56;11.33;;;10.23;;
4450;SDS011;2238;50.180;9.230;2023-04-06T03:21:57;10.70;;;8.33;;
4450;SDS011;2238;50.180;9.230;2023-04-06T03:24:58;9.20;;;8.37;;
4450;SDS011;2238;50.180;9.230;2023-04-06T03:27:58;8.87;;;7.90;;
4450;SDS011;2238;50.180;9.230;2023-04-06T03:30:59;8.60;;;7.40;;
4450;SDS011;2238;50.180;9.230;2023-04-06T03:33:59;8.17;;;7.43;;
4450;SDS011;2238;50.180;9.230;2023-04-06T03:37:00;9.83;;;8.47;;
4450;SDS011;2238;50.180;9.230;2023-04-06T03:40:01;8.67;;;7.77;;
4450;SDS011;2238;50.180;9.230;2023-04-06T03:43:03;9.43;;;8.17;;
4450;SDS011;2238;50.180;9.230;2023-04-06T03:46:04;9.70;;;8.77;;
4450;SDS011;2238;50.180;9.230;2023-04-06T03:49:04;9.77;;;8.77;;
4450;SDS011;2238;50.180;9.230;2023-04-06T03:52:05;9.70;;;8.80;;
4450;SDS011;2238;50.180;9.230;2023-04-06T03:55:06;8.20;;;7.50;;
4450;SDS011;2238;50.180;9.230;2023-04-06T03:58:07;9.00;;;8.07;;
4450;SDS011;2238;50.180;9.230;2023-04-06T04:01:08;9.70;;;8.63;;
4450;SDS011;2238;50.180;9.230;2023-04-06T04:04:08;9.13;;;8.20;;
4450;SDS011;2238;50.180;9.230;2023-04-06T04:07:09;8.97;;;7.33;;
4450;SDS011;2238;50.180;9.230;2023-04-06T04:10:10;11.63;;;10.43;;
4450;SDS011;2238;50.180;9.230;2023-04-06T04:13:10;9.37;;;8.43;;
4450;SDS011;2238;50.180;9.230;2023-04-06T04:16:11;10.17;;;8.67;;
4450;SDS011;2238;50.180;9.230;2023-04-06T04:38:09;10.47;;;9.37;;
4450;SDS011;2238;50.180;9.230;2023-04-06T04:41:09;14.37;;;9.67;;
4450;SDS011;2238;50.180;9.230;2023-04-06T04:44:10;9.73;;;8.83;;
4450;SDS011;2238;50.180;9.230;2023-04-06T04:47:11;10.63;;;9.20;;
4450;SDS011;2238;50.180;9.230;2023-04-06T04:50:11;10.87;;;9.77;;
4450;SDS011;2238;50.180;9.230;2023-04-06T04:53:12;9.77;;;8.87;;
4450;SDS011;2238;50.180;9.230;2023-04-06T04:56:12;11.10;;;10.07;;
4450;SDS011;2238;50.180;9.230;2023-04-06T04:59:13;12.00;;;10.80;;
4450;SDS011;2238;50.180;9.230;2023-04-06T05:02:14;11.37;;;8.87;;
4450;SDS011;2238;50.180;9.230;2023-04-06T05:05:15;10.50;;;9.40;;
4450;SDS011;2238;50.180;9.230;2023-04-06T05:08:16;11.80;;;9.13;;
4450;SDS011;2238;50.180;9.230;2023-04-06T05:11:16;12.77;;;9.50;;
4450;SDS011;2238;50.180;9.230;2023-04-06T05:14:17;10.70;;;9.60;;
4450;SDS011;2238;50.180;9.230;2023-04-06T05:17:18;10.87;;;9.77;;
4450;SDS011;2238;50.180;9.230;2023-04-06T05:20:19;10.67;;;9.30;;
4450;SDS011;2238;50.180;9.230;2023-04-06T05:23:19;10.73;;;9.60;;
4450;SDS011;2238;50.180;9.230;2023-04-06T05:26:20;11.03;;;9.53;;
4450;SDS011;2238;50.180;9.230;2023-04-06T05:29:21;12.43;;;9.03;;
4450;SDS011;2238;50.180;9.230;2023-04-06T05:32:23;10.00;;;9.10;;
4450;SDS011;2238;50.180;9.230;2023-04-06T05:35:24;10.50;;;9.40;;
4450;SDS011;2238;50.180;9.230;2023-04-06T05:38:25;9.43;;;8.50;;
4450;SDS011;2238;50.180;9.230;2023-04-06T05:41:25;10.00;;;9.03;;
4450;SDS011;2238;50.180;9.230;2023-04-06T05:44:26;10.27;;;9.27;;
4450;SDS011;2238;50.180;9.230;2023-04-06T05:47:27;13.53;;;9.30;;
4450;SDS011;2238;50.180;9.230;2023-04-06T05:50:27;10.97;;;9.93;;
4450;SDS011;2238;50.180;9.230;2023-04-06T05:53:28;10.70;;;9.60;;
4450;SDS011;2238;50.180;9.230;2023-04-06T05:56:29;11.40;;;9.77;;
4450;SDS011;2238;50.180;9.230;2023-04-06T05:59:31;9.67;;;8.67;;
4450;SDS011;2238;50.180;9.230;2023-04-06T06:02:32;11.03;;;9.23;;
4450;SDS011;2238;50.180;9.230;2023-04-06T06:05:33;9.87;;;8.87;;
4450;SDS011;2238;50.180;9.230;2023-04-06T06:08:33;10.57;;;9.53;;
4450;SDS011;2238;50.180;9.230;2023-04-06T06:11:34;56.43;;;33.80;;
4450;SDS011;2238;50.180;9.230;2023-04-06T06:14:34;36.80;;;26.57;;
4450;SDS011;2238;50.180;9.230;2023-04-06T06:17:35;32.57;;;25.83;;
4450;SDS011;2238;50.180;9.230;2023-04-06T06:20:36;10.93;;;9.83;;
4450;SDS011;2238;50.180;9.230;2023-04-06T06:23:36;11.00;;;9.90;;
4450;SDS011;2238;50.180;9.230;2023-04-06T06:26:37;12.53;;;11.17;;
4450;SDS011;2238;50.180;9.230;2023-04-06T06:29:39;11.47;;;10.27;;
4450;SDS011;2238;50.180;9.230;2023-04-06T06:32:39;11.93;;;9.73;;
4450;SDS011;2238;50.180;9.230;2023-04-06T06:35:40;9.40;;;8.60;;
4450;SDS011;2238;50.180;9.230;2023-04-06T06:38:41;10.13;;;8.87;;
4450;SDS011;2238;50.180;9.230;2023-04-06T06:41:41;10.17;;;9.20;;
4450;SDS011;2238;50.180;9.230;2023-04-06T06:44:42;10.27;;;9.27;;
4450;SDS011;2238;50.180;9.230;2023-04-06T06:47:42;13.63;;;9.90;;
4450;SDS011;2238;50.180;9.230;2023-04-06T06:50:43;9.63;;;8.67;;
4450;SDS011;2238;50.180;9.230;2023-04-06T06:53:44;15.60;;;9.40;;
4450;SDS011;2238;50.180;9.230;2023-04-06T06:56:45;10.63;;;9.20;;
4450;SDS011;2238;50.180;9.230;2023-04-06T06:59:45;10.73;;;8.53;;
4450;SDS011;2238;50.180;9.230;2023-04-06T07:02:47;9.37;;;8.53;;
4450;SDS011;2238;50.180;9.230;2023-04-06T07:05:48;10.53;;;8.63;;
4450;SDS011;2238;50.180;9.230;2023-04-06T07:08:53;8.27;;;7.57;;
4450;SDS011;2238;50.180;9.230;2023-04-06T07:11:53;10.23;;;9.23;;
4450;SDS011;2238;50.180;9.230;2023-04-06T07:14:56;13.50;;;11.63;;
4450;SDS011;2238;50.180;9.230;2023-04-06T07:17:56;14.27;;;12.73;;
4450;SDS011;2238;50.180;9.230;2023-04-06T07:20:57;16.80;;;13.50;;
4450;SDS011;2238;50.180;9.230;2023-04-06T07:23:58;14.40;;;12.90;;
4450;SDS011;2238;50.180;9.230;2023-04-06T07:26:58;15.27;;;13.63;;
4450;SDS011;2238;50.180;9.230;2023-04-06T07:30:00;17.03;;;12.80;;
4450;SDS011;2238;50.180;9.230;2023-04-06T07:33:01;18.17;;;15.00;;
4450;SDS011;2238;50.180;9.230;2023-04-06T07:36:01;22.17;;;14.67;;
4450;SDS011;2238;50.180;9.230;2023-04-06T07:39:02;16.23;;;14.43;;
4450;SDS011;2238;50.180;9.230;2023-04-06T07:42:03;15.63;;;14.00;;
4450;SDS011;2238;50.180;9.230;2023-04-06T07:45:03;14.47;;;12.27;;
4450;SDS011;2238;50.180;9.230;2023-04-06T07:48:04;19.23;;;15.30;;
4450;SDS011;2238;50.180;9.230;2023-04-06T07:51:06;19.80;;;14.70;;
4450;SDS011;2238;50.180;9.230;2023-04-06T07:54:08;13.10;;;11.90;;
4450;SDS011;2238;50.180;9.230;2023-04-06T07:57:09;14.43;;;13.00;;
4450;SDS011;2238;50.180;9.230;2023-04-06T08:00:10;13.70;;;12.30;;
4450;SDS011;2238;50.180;9.230;2023-04-06T08:03:11;12.60;;;11.40;;
4450;SDS011;2238;50.180;9.230;2023-04-06T08:06:12;13.73;;;11.30;;
4450;SDS011;2238;50.180;9.230;2023-04-06T08:09:12;15.73;;;13.13;;
4450;SDS011;2238;50.180;9.230;2023-04-06T08:12:13;11.77;;;10.57;;
4450;SDS011;2238;50.180;9.230;2023-04-06T08:15:14;12.30;;;10.60;;
4450;SDS011;2238;50.180;9.230;2023-04-06T08:18:15;11.00;;;9.90;;
4450;SDS011;2238;50.180;9.230;2023-04-06T08:21:15;11.00;;;9.90;;
4450;SDS011;2238;50.180;9.230;2023-04-06T08:24:16;11.13;;;10.00;;
4450;SDS011;2238;50.180;9.230;2023-04-06T08:27:17;11.00;;;9.90;;
4450;SDS011;2238;50.180;9.230;2023-04-06T08:30:17;11.50;;;10.37;;
4450;SDS011;2238;50.180;9.230;2023-04-06T08:33:19;11.60;;;10.43;;
4450;SDS011;2238;50.180;9.230;2023-04-06T08:36:19;12.23;;;11.13;;
4450;SDS011;2238;50.180;9.230;2023-04-06T08:39:22;13.07;;;10.30;;
4450;SDS011;2238;50.180;9.230;2023-04-06T08:42:25;10.57;;;9.47;;
4450;SDS011;2238;50.180;9.230;2023-04-06T08:45:28;11.27;;;10.10;;
4450;SDS011;2238;50.180;9.230;2023-04-06T08:48:29;11.37;;;10.00;;
4450;SDS011;2238;50.180;9.230;2023-04-06T08:51:30;12.03;;;10.83;;
4450;SDS011;2238;50.180;9.230;2023-04-06T08:54:31;11.30;;;10.13;;
4450;SDS011;2238;50.180;9.230;2023-04-06T08:57:31;10.80;;;9.80;;
4450;SDS011;2238;50.180;9.230;2023-04-06T09:00:33;10.73;;;9.50;;
4450;SDS011;2238;50.180;9.230;2023-04-06T09:03:39;11.20;;;10.10;;
4450;SDS011;2238;50.180;9.230;2023-04-06T09:06:40;11.10;;;10.00;;
4450;SDS011;2238;50.180;9.230;2023-04-06T09:09:41;10.90;;;9.80;;
4450;SDS011;2238;50.180;9.230;2023-04-06T09:12:47;11.63;;;10.00;;
4450;SDS011;2238;50.180;9.230;2023-04-06T09:15:57;11.77;;;10.40;;
4450;SDS011;2238;50.180;9.230;2023-04-06T09:19:09;11.03;;;9.93;;
4450;SDS011;2238;50.180;9.230;2023-04-06T09:22:10;11.13;;;9.17;;
4450;SDS011;2238;50.180;9.230;2023-04-06T09:25:17;13.20;;;8.40;;
4450;SDS011;2238;50.180;9.230;2023-04-06T09:28:20;10.50;;;9.60;;
4450;SDS011;2238;50.180;9.230;2023-04-06T09:34:25;12.90;;;10.27;;
4450;SDS011;2238;50.180;9.230;2023-04-06T09:37:27;12.97;;;9.47;;
4450;SDS011;2238;50.180;9.230;2023-04-06T09:40:28;11.63;;;10.27;;
4450;SDS011;2238;50.180;9.230;2023-04-06T09:43:29;10.77;;;9.63;;
4450;SDS011;2238;50.180;9.230;2023-04-06T09:46:31;11.33;;;10.20;;
4450;SDS011;2238;50.180;9.230;2023-04-06T09:49:34;12.30;;;9.97;;
4450;SDS011;2238;50.180;9.230;2023-04-06T09:52:46;13.50;;;10.70;;
4450;SDS011;2238;50.180;9.230;2023-04-06T09:55:51;11.20;;;9.90;;
4450;SDS011;2238;50.180;9.230;2023-04-06T09:59:00;13.13;;;9.90;;
4450;SDS011;2238;50.180;9.230;2023-04-06T10:02:04;11.37;;;10.17;;
4450;SDS011;2238;50.180;9.230;2023-04-06T10:05:22;11.03;;;9.77;;
4450;SDS011;2238;50.180;9.230;2023-04-06T10:08:40;12.07;;;8.60;;
4450;SDS011;2238;50.180;9.230;2023-04-06T10:11:42;13.93;;;10.17;;
4450;SDS011;2238;50.180;9.230;2023-04-06T10:14:43;10.90;;;9.60;;
4450;SDS011;2238;50.180;9.230;2023-04-06T10:17:44;13.47;;;9.53;;
4450;SDS011;2238;50.180;9.230;2023-04-06T10:20:53;11.43;;;9.80;;
4450;SDS011;2238;50.180;9.230;2023-04-06T10:24:07;14.20;;;9.27;;
4450;SDS011;2238;50.180;9.230;2023-04-06T10:27:12;10.27;;;8.10;;
4450;SDS011;2238;50.180;9.230;2023-04-06T10:30:15;12.53;;;8.83;;
4450;SDS011;2238;50.180;9.230;2023-04-06T10:33:19;13.00;;;9.40;;
4450;SDS011;2238;50.180;9.230;2023-04-06T10:36:24;14.07;;;9.80;;
4450;SDS011;2238;50.180;9.230;2023-04-06T10:39:28;12.73;;;9.60;;
4450;SDS011;2238;50.180;9.230;2023-04-06T10:42:38;12.10;;;9.57;;
4450;SDS011;2238;50.180;9.230;2023-04-06T10:45:39;15.10;;;10.40;;
4450;SDS011;2238;50.180;9.230;2023-04-06T10:48:41;11.70;;;9.83;;
4450;SDS011;2238;50.180;9.230;2023-04-06T10:51:43;11.70;;;9.90;;
4450;SDS011;2238;50.180;9.230;2023-04-06T10:54:44;13.03;;;10.10;;
4450;SDS011;2238;50.180;9.230;2023-04-06T10:57:46;14.13;;;10.63;;
4450;SDS011;2238;50.180;9.230;2023-04-06T11:00:47;12.10;;;9.97;;
4450;SDS011;2238;50.180;9.230;2023-04-06T11:03:49;11.53;;;9.97;;
4450;SDS011;2238;50.180;9.230;2023-04-06T11:06:52;10.83;;;9.50;;
4450;SDS011;2238;50.180;9.230;2023-04-06T11:09:53;14.90;;;10.43;;
4450;SDS011;2238;50.180;9.230;2023-04-06T11:12:54;12.90;;;9.97;;
4450;SDS011;2238;50.180;9.230;2023-04-06T11:15:55;12.67;;;10.30;;
4450;SDS011;2238;50.180;9.230;2023-04-06T11:18:57;11.43;;;9.13;;
4450;SDS011;2238;50.180;9.230;2023-04-06T11:22:05;16.63;;;10.30;;
4450;SDS011;2238;50.180;9.230;2023-04-06T11:25:07;15.53;;;10.47;;
4450;SDS011;2238;50.180;9.230;2023-04-06T11:28:08;13.03;;;10.63;;
4450;SDS011;2238;50.180;9.230;2023-04-06T11:31:09;11.33;;;9.73;;
4450;SDS011;2238;50.180;9.230;2023-04-06T11:34:12;14.20;;;11.23;;
4450;SDS011;2238;50.180;9.230;2023-04-06T11:37:22;14.07;;;11.03;;
4450;SDS011;2238;50.180;9.230;2023-04-06T11:40:26;13.73;;;10.77;;
4450;SDS011;2238;50.180;9.230;2023-04-06T11:43:29;12.77;;;9.90;;
4450;SDS011;2238;50.180;9.230;2023-04-06T11:46:30;14.67;;;10.77;;
4450;SDS011;2238;50.180;9.230;2023-04-06T11:49:32;18.63;;;10.67;;
4450;SDS011;2238;50.180;9.230;2023-04-06T11:52:38;12.57;;;11.23;;
4450;SDS011;2238;50.180;9.230;2023-04-06T11:55:39;11.70;;;10.50;;
4450;SDS011;2238;50.180;9.230;2023-04-06T11:58:40;13.93;;;11.03;;
4450;SDS011;2238;50.180;9.230;2023-04-06T12:01:47;12.10;;;10.93;;
4450;SDS011;2238;50.180;9.230;2023-04-06T12:04:47;12.90;;;10.50;;
4450;SDS011;2238;50.180;9.230;2023-04-06T12:07:48;12.97;;;10.20;;
4450;SDS011;2238;50.180;9.230;2023-04-06T12:10:48;12.57;;;10.93;;
4450;SDS011;2238;50.180;9.230;2023-04-06T12:13:49;10.60;;;9.50;;
4450;SDS011;2238;50.180;9.230;2023-04-06T12:16:49;11.07;;;10.10;;
4450;SDS011;2238;50.180;9.230;2023-04-06T12:19:50;11.20;;;9.93;;
4450;SDS011;2238;50.180;9.230;2023-04-06T12:22:51;13.83;;;11.50;;
4450;SDS011;2238;50.180;9.230;2023-04-06T12:25:51;13.67;;;10.90;;
4450;SDS011;2238;50.180;9.230;2023-04-06T12:28:52;12.03;;;10.67;;
4450;SDS011;2238;50.180;9.230;2023-04-06T12:31:53;13.37;;;10.50;;
4450;SDS011;2238;50.180;9.230;2023-04-06T12:34:53;11.90;;;10.70;;
4450;SDS011;2238;50.180;9.230;2023-04-06T12:37:54;11.67;;;10.17;;
4450;SDS011;2238;50.180;9.230;2023-04-06T12:40:55;12.40;;;11.23;;
4450;SDS011;2238;50.180;9.230;2023-04-06T12:43:55;12.00;;;9.80;;
4450;SDS011;2238;50.180;9.230;2023-04-06T12:46:59;12.20;;;11.07;;
4450;SDS011;2238;50.180;9.230;2023-04-06T12:50:01;11.37;;;10.23;;
4450;SDS011;2238;50.180;9.230;2023-04-06T12:53:02;13.67;;;10.30;;
4450;SDS011;2238;50.180;9.230;2023-04-06T12:56:09;12.27;;;10.53;;
4450;SDS011;2238;50.180;9.230;2023-04-06T12:59:20;11.83;;;10.60;;
4450;SDS011;2238;50.180;9.230;2023-04-06T13:02:21;12.20;;;11.00;;
4450;SDS011;2238;50.180;9.230;2023-04-06T13:05:22;12.57;;;11.37;;
4450;SDS011;2238;50.180;9.230;2023-04-06T13:08:22;12.13;;;10.40;;
4450;SDS011;2238;50.180;9.230;2023-04-06T13:11:23;12.20;;;10.90;;
4450;SDS011;2238;50.180;9.230;2023-04-06T13:14:26;11.57;;;10.53;;
4450;SDS011;2238;50.180;9.230;2023-04-06T13:17:27;12.17;;;10.63;;
4450;SDS011;2238;50.180;9.230;2023-04-06T13:20:28;11.77;;;10.57;;
4450;SDS011;2238;50.180;9.230;2023-04-06T13:23:28;11.03;;;9.93;;
4450;SDS011;2238;50.180;9.230;2023-04-06T13:26:29;12.37;;;10.00;;
4450;SDS011;2238;50.180;9.230;2023-04-06T13:29:30;14.37;;;13.00;;
4450;SDS011;2238;50.180;9.230;2023-04-06T13:32:30;10.30;;;9.33;;
4450;SDS011;2238;50.180;9.230;2023-04-06T13:35:31;11.13;;;10.17;;
4450;SDS011;2238;50.180;9.230;2023-04-06T13:38:32;9.80;;;8.80;;
4450;SDS011;2238;50.180;9.230;2023-04-06T13:41:33;9.47;;;8.67;;
4450;SDS011;2238;50.180;9.230;2023-04-06T13:44:34;9.93;;;8.37;;
4450;SDS011;2238;50.180;9.230;2023-04-06T13:47:34;10.10;;;9.10;;
4450;SDS011;2238;50.180;9.230;2023-04-06T13:50:35;11.00;;;9.90;;
4450;SDS011;2238;50.180;9.230;2023-04-06T13:53:36;11.20;;;10.10;;
4450;SDS011;2238;50.180;9.230;2023-04-06T13:56:36;10.47;;;8.80;;
4450;SDS011;2238;50.180;9.230;2023-04-06T13:59:37;11.23;;;9.30;;
4450;SDS011;2238;50.180;9.230;2023-04-06T14:02:39;9.63;;;8.57;;
4450;SDS011;2238;50.180;9.230;2023-04-06T14:05:40;9.40;;;8.60;;
4450;SDS011;2238;50.180;9.230;2023-04-06T14:08:40;9.80;;;8.90;;
4450;SDS011;2238;50.180;9.230;2023-04-06T14:11:41;9.60;;;8.33;;
4450;SDS011;2238;50.180;9.230;2023-04-06T14:14:42;9.10;;;8.30;;
4450;SDS011;2238;50.180;9.230;2023-04-06T14:17:42;9.80;;;8.80;;
4450;SDS011;2238;50.180;9.230;2023-04-06T14:20:43;10.20;;;9.10;;
4450;SDS011;2238;50.180;9.230;2023-04-06T14:23:43;8.33;;;7.63;;
4450;SDS011;2238;50.180;9.230;2023-04-06T14:26:44;9.27;;;8.30;;
4450;SDS011;2238;50.180;9.230;2023-04-06T14:29:45;8.77;;;7.93;;
4450;SDS011;2238;50.180;9.230;2023-04-06T14:32:45;9.83;;;8.80;;
4450;SDS011;2238;50.180;9.230;2023-04-06T14:35:46;9.23;;;8.33;;
4450;SDS011;2238;50.180;9.230;2023-04-06T14:38:46;9.30;;;7.87;;
4450;SDS011;2238;50.180;9.230;2023-04-06T14:41:47;10.87;;;9.83;;
4450;SDS011;2238;50.180;9.230;2023-04-06T14:44:48;10.40;;;8.13;;
4450;SDS011;2238;50.180;9.230;2023-04-06T14:47:49;11.60;;;9.90;;
4450;SDS011;2238;50.180;9.230;2023-04-06T14:50:54;10.20;;;8.93;;
4450;SDS011;2238;50.180;9.230;2023-04-06T14:53:55;11.40;;;9.97;;
4450;SDS011;2238;50.180;9.230;2023-04-06T14:56:56;10.20;;;9.20;;
4450;SDS011;2238;50.180;9.230;2023-04-06T14:59:57;10.83;;;9.73;;
4450;SDS011;2238;50.180;9.230;2023-04-06T15:02:57;12.70;;;9.50;;
4450;SDS011;2238;50.180;9.230;2023-04-06T15:05:58;10.70;;;9.00;;
4450;SDS011;2238;50.180;9.230;2023-04-06T15:09:00;9.47;;;8.60;;
4450;SDS011;2238;50.180;9.230;2023-04-06T15:12:00;10.40;;;9.13;;
4450;SDS011;2238;50.180;9.230;2023-04-06T15:15:01;9.67;;;8.67;;
4450;SDS011;2238;50.180;9.230;2023-04-06T15:18:02;9.50;;;8.60;;
4450;SDS011;2238;50.180;9.230;2023-04-06T15:21:03;10.83;;;9.80;;
4450;SDS011;2238;50.180;9.230;2023-04-06T15:24:03;10.40;;;9.40;;
4450;SDS011;2238;50.180;9.230;2023-04-06T15:27:06;9.60;;;8.60;;
4450;SDS011;2238;50.180;9.230;2023-04-06T15:30:06;15.43;;;9.50;;
4450;SDS011;2238;50.180;9.230;2023-04-06T15:33:07;10.23;;;9.33;;
4450;SDS011;2238;50.180;9.230;2023-04-06T15:36:16;11.87;;;10.70;;
4450;SDS011;2238;50.180;9.230;2023-04-06T15:39:22;10.03;;;9.03;;
4450;SDS011;2238;50.180;9.230;2023-04-06T15:42:22;10.67;;;9.67;;
4450;SDS011;2238;50.180;9.230;2023-04-06T15:45:23;9.73;;;8.73;;
4450;SDS011;2238;50.180;9.230;2023-04-06T15:48:23;11.20;;;8.70;;
4450;SDS011;2238;50.180;9.230;2023-04-06T15:51:24;10.20;;;9.13;;
4450;SDS011;2238;50.180;9.230;2023-04-06T15:54:25;9.13;;;8.30;;
4450;SDS011;2238;50.180;9.230;2023-04-06T15:57:25;9.77;;;8.77;;
4450;SDS011;2238;50.180;9.230;2023-04-06T16:00:26;8.60;;;7.90;;
4450;SDS011;2238;50.180;9.230;2023-04-06T16:03:27;9.80;;;8.80;;
4450;SDS011;2238;50.180;9.230;2023-04-06T16:06:28;8.90;;;8.17;;
4450;SDS011;2238;50.180;9.230;2023-04-06T16:09:29;8.73;;;7.93;;
4450;SDS011;2238;50.180;9.230;2023-04-06T16:12:29;8.93;;;8.13;;
4450;SDS011;2238;50.180;9.230;2023-04-06T16:15:33;10.20;;;8.70;;
4450;SDS011;2238;50.180;9.230;2023-04-06T16:18:34;10.97;;;8.90;;
4450;SDS011;2238;50.180;9.230;2023-04-06T16:21:34;9.43;;;8.33;;
4450;SDS011;2238;50.180;9.230;2023-04-06T16:24:36;10.27;;;9.37;;
4450;SDS011;2238;50.180;9.230;2023-04-06T16:27:36;9.10;;;8.30;;
4450;SDS011;2238;50.180;9.230;2023-04-06T16:30:37;10.17;;;9.27;;
4450;SDS011;2238;50.180;9.230;2023-04-06T16:33:38;10.93;;;9.83;;
4450;SDS011;2238;50.180;9.230;2023-04-06T16:36:41;10.20;;;9.20;;
4450;SDS011;2238;50.180;9.230;2023-04-06T16:39:41;11.53;;;10.37;;
4450;SDS011;2238;50.180;9.230;2023-04-06T16:42:42;10.17;;;9.37;;
4450;SDS011;2238;50.180;9.230;2023-04-06T16:45:48;12.57;;;10.00;;
4450;SDS011;2238;50.180;9.230;2023-04-06T16:48:50;10.10;;;9.07;;
4450;SDS011;2238;50.180;9.230;2023-04-06T16:51:51;11.63;;;10.13;;
4450;SDS011;2238;50.180;9.230;2023-04-06T16:54:52;12.40;;;11.10;;
4450;SDS011;2238;50.180;9.230;2023-04-06T16:57:55;10.57;;;9.57;;
4450;SDS011;2238;50.180;9.230;2023-04-06T17:00:56;11.63;;;10.53;;
4450;SDS011;2238;50.180;9.230;2023-04-06T17:03:59;11.77;;;10.67;;
4450;SDS011;2238;50.180;9.230;2023-04-06T17:07:00;14.80;;;13.40;;
4450;SDS011;2238;50.180;9.230;2023-04-06T17:10:01;32.70;;;22.10;;
4450;SDS011;2238;50.180;9.230;2023-04-06T17:13:02;16.13;;;13.90;;
4450;SDS011;2238;50.180;9.230;2023-04-06T17:16:03;9.30;;;8.50;;
4450;SDS011;2238;50.180;9.230;2023-04-06T17:19:03;10.43;;;9.43;;
4450;SDS011;2238;50.180;9.230;2023-04-06T17:22:04;7.90;;;7.10;;
4450;SDS011;2238;50.180;9.230;2023-04-06T17:25:05;8.30;;;7.53;;
4450;SDS011;2238;50.180;9.230;2023-04-06T17:28:06;8.50;;;7.70;;
4450;SDS011;2238;50.180;9.230;2023-04-06T17:31:07;11.40;;;10.10;;
4450;SDS011;2238;50.180;9.230;2023-04-06T17:34:11;8.17;;;7.47;;
4450;SDS011;2238;50.180;9.230;2023-04-06T17:37:14;16.57;;;12.73;;
4450;SDS011;2238;50.180;9.230;2023-04-06T17:40:15;10.83;;;9.83;;
4450;SDS011;2238;50.180;9.230;2023-04-06T17:43:15;13.73;;;9.97;;
4450;SDS011;2238;50.180;9.230;2023-04-06T17:46:16;11.33;;;10.23;;
4450;SDS011;2238;50.180;9.230;2023-04-06T17:49:19;9.13;;;8.00;;
4450;SDS011;2238;50.180;9.230;2023-04-06T17:52:20;8.83;;;8.13;;
4450;SDS011;2238;50.180;9.230;2023-04-06T17:55:20;7.77;;;7.07;;
4450;SDS011;2238;50.180;9.230;2023-04-06T17:58:21;8.03;;;7.23;;
4450;SDS011;2238;50.180;9.230;2023-04-06T18:01:22;8.20;;;7.37;;
4450;SDS011;2238;50.180;9.230;2023-04-06T18:04:23;8.83;;;7.60;;
4450;SDS011;2238;50.180;9.230;2023-04-06T18:07:24;8.10;;;7.30;;
4450;SDS011;2238;50.180;9.230;2023-04-06T18:10:24;9.07;;;7.93;;
4450;SDS011;2238;50.180;9.230;2023-04-06T18:13:25;9.63;;;8.63;;
4450;SDS011;2238;50.180;9.230;2023-04-06T18:16:26;12.33;;;10.23;;
4450;SDS011;2238;50.180;9.230;2023-04-06T18:19:27;13.77;;;12.53;;
4450;SDS011;2238;50.180;9.230;2023-04-06T18:22:32;11.83;;;10.63;;
4450;SDS011;2238;50.180;9.230;2023-04-06T18:25:36;10.77;;;8.90;;
4450;SDS011;2238;50.180;9.230;2023-04-06T18:28:40;12.20;;;9.37;;
4450;SDS011;2238;50.180;9.230;2023-04-06T18:31:40;10.60;;;9.60;;
4450;SDS011;2238;50.180;9.230;2023-04-06T18:34:43;9.27;;;8.40;;
4450;SDS011;2238;50.180;9.230;2023-04-06T18:37:47;10.07;;;9.07;;
4450;SDS011;2238;50.180;9.230;2023-04-06T18:40:47;9.60;;;8.70;;
4450;SDS011;2238;50.180;9.230;2023-04-06T18:43:48;9.40;;;8.50;;
4450;SDS011;2238;50.180;9.230;2023-04-06T18:46:49;10.60;;;9.13;;
4450;SDS011;2238;50.180;9.230;2023-04-06T18:49:49;9.57;;;8.67;;
4450;SDS011;2238;50.180;9.230;2023-04-06T18:52:50;10.77;;;8.83;;
4450;SDS011;2238;50.180;9.230;2023-04-06T18:55:51;10.40;;;8.73;;